Time;durP1;ratioP1;P1;durP2;ratioP2;P2;SDS_P1;SDS_P2;PMS_P1;PMS_P2;Temp;Humidity;BMP_temperature;BMP_pressure;BME280_temperature;BME280_humidity;BME280_pressure;Samples;Min_cycle;Max_cycle;Signal;HPM_P1;HPM_P2
2022/12/11 00:00:15;;;;;;;32.58;8.85;;;;;;;;;;5044142;28;20049;-71
2022/12/11 00:02:44;;;;;;;29.88;9.18;;;;;;;;;;4994792;28;20053;-70
2022/12/11 00:05:10;;;;;;;;;;;;;;;;;;5026121;28;20133;-70
2022/12/11 00:07:37;;;;;;;29.50;7.47;;;;;;;;;;5048977;28;19935;-70
2022/12/11 00:10:05;;;;;;;24.75;7.30;;;;;;;;;;5062853;28;20052;-71
2022/12/11 00:12:32;;;;;;;26.67;8.80;;;;;;;;;;5057069;28;20039;-71
2022/12/11 00:14:58;;;;;;;27.05;8.65;;;;;;;;;;5024314;28;20048;-70
2022/12/11 00:17:25;;;;;;;26.55;8.82;;;;;;;;;;5040839;28;20074;-70
2022/12/11 00:19:54;;;;;;;29.13;9.00;;;;;;;;;;5042815;28;20176;-71
2022/12/11 00:22:21;;;;;;;;;;;;;;;;;;5044432;28;20045;-70
2022/12/11 00:24:49;;;;;;;27.27;7.88;;;;;;;;;;5010227;28;19925;-70
2022/12/11 00:27:16;;;;;;;28.73;8.52;;;;;;;;;;5042598;28;20060;-69
2022/12/11 00:29:43;;;;;;;29.42;8.48;;;;;;;;;;5027344;28;20045;-71
2022/12/11 00:32:10;;;;;;;25.35;8.50;;;;;;;;;;5033782;28;20060;-70
2022/12/11 00:34:37;;;;;;;33.08;9.50;;;;;;;;;;4985575;28;20057;-70
2022/12/11 00:37:05;;;;;;;30.75;9.32;;;;;;;;;;5002538;28;20049;-71
2022/12/11 00:39:32;;;;;;;28.33;8.35;;;;;;;;;;4986642;28;20091;-70
2022/12/11 00:41:59;;;;;;;26.60;8.82;;;;;;;;;;4967436;28;20127;-71
2022/12/11 00:44:27;;;;;;;34.83;9.23;;;;;;;;;;4933363;28;20049;-69
2022/12/11 00:46:54;;;;;;;25.53;8.30;;;;;;;;;;4960964;28;20054;-69
2022/12/11 00:49:20;;;;;;;30.52;9.60;;;;;;;;;;4981928;28;20042;-69
2022/12/11 00:51:47;;;;;;;31.42;8.63;;;;;;;;;;4997510;28;20152;-69
2022/12/11 00:54:15;;;;;;;27.95;8.27;;;;;;;;;;5016043;28;20048;-69
2022/12/11 00:56:42;;;;;;;34.92;9.27;;;;;;;;;;5043116;28;20052;-71
2022/12/11 00:59:09;;;;;;;28.60;9.50;;;;;;;;;;5017238;28;20133;-69
2022/12/11 01:01:38;;;;;;;30.92;9.50;;;;;;;;;;5021976;28;20052;-69
2022/12/11 01:04:04;;;;;;;30.20;9.15;;;;;;;;;;4995732;28;20056;-69
2022/12/11 01:06:31;;;;;;;30.63;7.97;;;;;;;;;;5059622;28;20127;-69
2022/12/11 01:11:44;;;;;;;27.25;8.55;;;;;;;;;;5022504;28;20057;-70
2022/12/11 01:14:12;;;;;;;31.23;9.60;;;;;;;;;;5021450;28;20053;-70
2022/12/11 01:16:39;;;;;;;28.25;8.25;;;;;;;;;;5038201;28;20057;-69
2022/12/11 01:19:06;;;;;;;33.78;10.00;;;;;;;;;;5030512;28;20060;-69
2022/12/11 01:21:32;;;;;;;25.90;8.63;;;;;;;;;;5030478;28;20068;-68
2022/12/11 01:23:59;;;;;;;31.98;9.30;;;;;;;;;;5000766;28;20047;-70
2022/12/11 01:26:26;;;;;;;28.92;9.18;;;;;;;;;;5047461;28;20052;-70
2022/12/11 01:28:54;;;;;;;31.85;8.88;;;;;;;;;;5026855;28;20075;-70
2022/12/11 01:31:22;;;;;;;30.52;8.57;;;;;;;;;;5040275;28;20052;-70
2022/12/11 01:33:49;;;;;;;28.85;8.55;;;;;;;;;;5013733;28;20130;-69
2022/12/11 01:36:17;;;;;;;25.13;8.32;;;;;;;;;;5010588;28;20056;-69
2022/12/11 01:38:49;;;;;;;26.27;8.47;;;;;;;;;;5012759;28;20045;-71
2022/12/11 01:41:16;;;;;;;28.02;9.18;;;;;;;;;;5024883;28;20056;-69
2022/12/11 01:44:05;;;;;;;27.23;8.82;;;;;;;;;;5057648;28;20052;-69
2022/12/11 01:46:32;;;;;;;35.10;9.60;;;;;;;;;;5053113;28;20125;-70
2022/12/11 01:48:59;;;;;;;27.90;9.00;;;;;;;;;;5043336;28;20056;-69
2022/12/11 01:51:27;;;;;;;26.83;8.13;;;;;;;;;;5056422;28;20045;-70
2022/12/11 01:53:55;;;;;;;31.90;9.05;;;;;;;;;;5008017;28;20101;-70
2022/12/11 01:56:23;;;;;;;36.15;9.82;;;;;;;;;;5022341;28;20060;-70
2022/12/11 01:58:52;;;;;;;27.27;8.75;;;;;;;;;;5007638;28;20049;-70
2022/12/11 02:01:24;;;;;;;34.67;8.40;;;;;;;;;;5019038;28;20052;-70
2022/12/11 02:03:53;;;;;;;35.67;10.38;;;;;;;;;;5031340;28;20052;-70
2022/12/11 02:06:19;;;;;;;;;;;;;;;;;;5040662;28;20049;-70
2022/12/11 02:08:46;;;;;;;29.73;7.90;;;;;;;;;;5016043;28;19974;-71
2022/12/11 02:11:15;;;;;;;28.27;8.88;;;;;;;;;;5017720;28;20068;-70
2022/12/11 02:13:44;;;;;;;31.77;8.60;;;;;;;;;;5019686;28;20107;-69
2022/12/11 02:16:11;;;;;;;;;;;;;;;;;;5002467;28;20201;-70
2022/12/11 02:18:42;;;;;;;27.73;9.00;;;;;;;;;;5034758;28;19924;-69
2022/12/11 02:21:12;;;;;;;26.92;8.25;;;;;;;;;;5028645;28;20468;-69
2022/12/11 02:23:49;;;;;;;29.60;8.57;;;;;;;;;;5020839;28;20060;-70
2022/12/11 02:26:25;;;;;;;35.28;10.32;;;;;;;;;;5030008;28;20137;-70
2022/12/11 02:28:55;;;;;;;31.02;8.93;;;;;;;;;;5034754;28;20053;-70
2022/12/11 02:31:27;;;;;;;28.10;8.77;;;;;;;;;;5030794;28;20102;-70
2022/12/11 02:33:58;;;;;;;38.05;10.80;;;;;;;;;;4986701;28;20055;-70
2022/12/11 02:36:26;;;;;;;29.23;9.15;;;;;;;;;;4975482;28;20076;-70
2022/12/11 02:38:57;;;;;;;34.80;9.65;;;;;;;;;;4980946;28;20066;-70
2022/12/11 02:41:24;;;;;;;30.83;9.50;;;;;;;;;;4976724;28;20053;-70
2022/12/11 02:43:53;;;;;;;34.28;9.57;;;;;;;;;;5003552;28;20056;-70
2022/12/11 02:46:21;;;;;;;30.38;9.13;;;;;;;;;;4996586;28;20056;-70
2022/12/11 02:48:50;;;;;;;35.50;11.02;;;;;;;;;;5045377;28;20114;-70
2022/12/11 02:53:47;;;;;;;31.98;9.48;;;;;;;;;;1092599;23;20204;-70
2022/12/11 02:56:16;;;;;;;28.52;9.40;;;;;;;;;;4954020;28;20109;-70
2022/12/11 02:58:47;;;;;;;30.90;9.55;;;;;;;;;;4977942;28;20068;-70
2022/12/11 03:01:18;;;;;;;33.25;9.90;;;;;;;;;;4959766;28;20089;-70
2022/12/11 03:03:45;;;;;;;31.98;9.23;;;;;;;;;;4942273;28;20055;-70
2022/12/11 03:06:17;;;;;;;31.40;10.07;;;;;;;;;;4943353;28;20050;-70
2022/12/11 03:08:44;;;;;;;37.20;10.52;;;;;;;;;;4967931;28;20051;-70
2022/12/11 03:11:11;;;;;;;32.17;9.85;;;;;;;;;;4947574;28;20057;-70
2022/12/11 03:13:39;;;;;;;29.42;10.63;;;;;;;;;;4967916;28;20065;-70
2022/12/11 03:16:11;;;;;;;36.88;9.98;;;;;;;;;;4961523;28;20055;-70
2022/12/11 03:18:44;;;;;;;33.15;9.32;;;;;;;;;;4905410;28;20063;-70
2022/12/11 03:21:15;;;;;;;25.85;8.95;;;;;;;;;;4914944;28;20070;-70
2022/12/11 03:23:44;;;;;;;27.40;8.90;;;;;;;;;;4880120;28;20115;-69
2022/12/11 03:26:12;;;;;;;33.15;9.80;;;;;;;;;;4949778;28;20055;-70
2022/12/11 03:28:50;;;;;;;30.63;9.27;;;;;;;;;;4970802;28;20058;-70
2022/12/11 03:31:22;;;;;;;32.67;9.40;;;;;;;;;;4969992;28;20046;-70
2022/12/11 03:33:53;;;;;;;32.20;8.80;;;;;;;;;;4890797;28;20168;-70
2022/12/11 03:36:22;;;;;;;28.38;9.48;;;;;;;;;;4955357;28;20049;-71
2022/12/11 03:38:51;;;;;;;32.13;9.27;;;;;;;;;;4971359;28;20054;-70
2022/12/11 03:41:20;;;;;;;35.92;9.85;;;;;;;;;;4981264;28;20050;-71
2022/12/11 03:43:46;;;;;;;;;;;;;;;;;;4932707;28;20138;-70
2022/12/11 03:46:14;;;;;;;24.42;8.13;;;;;;;;;;4969814;28;20016;-70
2022/12/11 03:48:42;;;;;;;27.15;8.73;;;;;;;;;;4987585;28;20057;-70
2022/12/11 03:51:10;;;;;;;33.42;9.65;;;;;;;;;;4962957;28;20070;-69
2022/12/11 03:53:38;;;;;;;32.40;9.82;;;;;;;;;;4950329;28;20054;-70
2022/12/11 03:56:06;;;;;;;29.15;9.77;;;;;;;;;;4986468;28;20081;-70
2022/12/11 03:58:33;;;;;;;27.85;9.30;;;;;;;;;;4953451;28;20058;-70
2022/12/11 04:01:00;;;;;;;34.28;9.80;;;;;;;;;;4958821;28;20104;-70
2022/12/11 04:03:26;;;;;;;31.15;9.43;;;;;;;;;;4920277;28;20070;-70
2022/12/11 04:05:54;;;;;;;30.55;9.20;;;;;;;;;;4935780;28;20061;-70
2022/12/11 04:08:23;;;;;;;30.80;9.15;;;;;;;;;;4996031;28;20126;-70
2022/12/11 04:11:33;;;;;;;31.23;9.32;;;;;;;;;;4948794;28;20145;-69
2022/12/11 04:13:37;;;;;;;29.60;8.63;;;;;;;;;;4932746;28;20369;-69
2022/12/11 04:16:03;;;;;;;34.72;9.82;;;;;;;;;;5003837;28;20055;-70
2022/12/11 04:24:15;;;;;;;27.95;9.13;;;;;;;;;;4972142;28;20046;-70
2022/12/11 04:26:42;;;;;;;30.92;9.07;;;;;;;;;;4952258;28;20197;-70
2022/12/11 04:29:08;;;;;;;35.65;10.50;;;;;;;;;;4965902;28;20050;-70
2022/12/11 04:31:35;;;;;;;36.15;9.50;;;;;;;;;;4958540;28;20070;-70
2022/12/11 04:34:02;;;;;;;26.60;8.93;;;;;;;;;;4919935;28;20086;-70
2022/12/11 04:36:29;;;;;;;29.70;9.25;;;;;;;;;;4939557;28;20066;-70
2022/12/11 04:38:55;;;;;;;32.03;9.63;;;;;;;;;;4967321;28;20054;-70
2022/12/11 04:41:24;;;;;;;26.75;9.25;;;;;;;;;;4938403;28;20046;-70
2022/12/11 04:43:51;;;;;;;31.45;9.38;;;;;;;;;;4932063;28;20062;-70
2022/12/11 04:46:18;;;;;;;28.08;10.13;;;;;;;;;;4963315;28;20054;-70
2022/12/11 04:48:46;;;;;;;26.67;9.48;;;;;;;;;;4957154;28;20051;-70
2022/12/11 04:51:14;;;;;;;31.17;9.87;;;;;;;;;;4964204;28;20054;-70
2022/12/11 04:53:42;;;;;;;29.23;9.13;;;;;;;;;;4927396;28;20309;-70
2022/12/11 04:56:10;;;;;;;28.42;8.70;;;;;;;;;;4965101;28;20133;-70
2022/12/11 04:58:39;;;;;;;32.40;8.93;;;;;;;;;;4932025;28;20058;-70
2022/12/11 05:01:05;;;;;;;;;;;;;;;;;;4954631;28;20058;-70
2022/12/11 05:03:32;;;;;;;27.45;8.25;;;;;;;;;;4955130;28;19926;-70
2022/12/11 05:05:59;;;;;;;25.48;8.98;;;;;;;;;;4965384;28;20061;-70
2022/12/11 05:08:26;;;;;;;34.22;9.55;;;;;;;;;;4955393;28;20073;-70
2022/12/11 05:10:55;;;;;;;27.23;8.75;;;;;;;;;;4950776;28;20069;-70
2022/12/11 05:13:22;;;;;;;27.95;8.43;;;;;;;;;;4963110;28;20050;-70
2022/12/11 05:15:50;;;;;;;30.40;9.13;;;;;;;;;;4945231;28;20064;-71
2022/12/11 05:18:17;;;;;;;29.42;9.80;;;;;;;;;;4963296;28;20062;-70
2022/12/11 05:20:44;;;;;;;25.45;8.35;;;;;;;;;;4965409;28;20054;-70
2022/12/11 05:23:13;;;;;;;31.27;9.77;;;;;;;;;;4963011;28;20062;-70
2022/12/11 05:25:40;;;;;;;27.02;9.82;;;;;;;;;;4933639;28;20092;-70
2022/12/11 05:28:07;;;;;;;25.65;8.40;;;;;;;;;;4960385;28;20057;-70
2022/12/11 05:30:33;;;;;;;27.30;8.57;;;;;;;;;;4973727;28;20085;-70
2022/12/11 05:33:02;;;;;;;31.17;9.85;;;;;;;;;;4939489;28;20054;-70
2022/12/11 05:35:28;;;;;;;24.85;8.88;;;;;;;;;;4934473;28;20049;-70
2022/12/11 05:37:57;;;;;;;29.52;9.55;;;;;;;;;;4952224;28;20053;-70
2022/12/11 05:40:23;;;;;;;27.27;9.27;;;;;;;;;;4926507;28;20176;-70
2022/12/11 05:42:50;;;;;;;26.90;8.20;;;;;;;;;;4933520;28;20054;-70
2022/12/11 05:45:17;;;;;;;27.40;9.68;;;;;;;;;;4929601;28;20050;-71
2022/12/11 05:47:48;;;;;;;25.42;9.05;;;;;;;;;;4934595;28;20058;-70
2022/12/11 05:50:17;;;;;;;25.10;8.82;;;;;;;;;;4978437;28;20050;-70
2022/12/11 05:52:44;;;;;;;24.25;8.13;;;;;;;;;;4938349;28;20049;-70
2022/12/11 05:55:11;;;;;;;27.58;9.15;;;;;;;;;;4933426;28;20058;-70
2022/12/11 05:57:40;;;;;;;30.27;9.98;;;;;;;;;;4913761;28;20070;-70
2022/12/11 06:00:08;;;;;;;22.80;8.65;;;;;;;;;;4974993;28;20065;-70
2022/12/11 06:02:35;;;;;;;24.17;9.30;;;;;;;;;;4952650;28;20058;-70
2022/12/11 06:05:02;;;;;;;29.65;8.45;;;;;;;;;;4927040;28;20154;-70
2022/12/11 06:07:33;;;;;;;26.77;9.15;;;;;;;;;;4942561;28;20054;-71
2022/12/11 06:10:00;;;;;;;23.92;8.85;;;;;;;;;;4941250;28;20053;-70
2022/12/11 06:12:27;;;;;;;23.75;8.77;;;;;;;;;;4962661;28;20057;-71
2022/12/11 06:14:54;;;;;;;32.65;9.02;;;;;;;;;;4954803;28;20062;-70
2022/12/11 06:17:21;;;;;;;26.50;9.10;;;;;;;;;;4930755;28;20140;-70
2022/12/11 06:19:47;;;;;;;20.42;7.88;;;;;;;;;;4938171;28;20061;-70
2022/12/11 06:22:14;;;;;;;23.65;8.63;;;;;;;;;;4947245;28;20058;-70
2022/12/11 06:24:42;;;;;;;23.40;8.85;;;;;;;;;;4913725;28;20063;-70
2022/12/11 06:27:09;;;;;;;22.83;8.80;;;;;;;;;;4953618;28;20058;-70
2022/12/11 06:29:36;;;;;;;24.65;8.93;;;;;;;;;;4944110;28;20467;-70
2022/12/11 06:32:03;;;;;;;25.35;9.30;;;;;;;;;;4961261;28;20057;-70
2022/12/11 06:34:30;;;;;;;22.20;8.15;;;;;;;;;;4958924;28;20115;-70
2022/12/11 06:36:56;;;;;;;22.70;8.63;;;;;;;;;;4960115;28;20061;-70
2022/12/11 06:39:23;;;;;;;26.30;8.55;;;;;;;;;;4943731;28;20050;-70
2022/12/11 06:41:51;;;;;;;24.08;8.63;;;;;;;;;;4936431;28;20086;-70
2022/12/11 06:44:18;;;;;;;25.40;8.15;;;;;;;;;;4922960;28;20057;-70
2022/12/11 06:46:45;;;;;;;24.40;8.85;;;;;;;;;;4943251;28;20085;-70
2022/12/11 06:49:14;;;;;;;23.88;7.78;;;;;;;;;;4944867;28;20070;-70
2022/12/11 06:51:41;;;;;;;24.95;8.57;;;;;;;;;;4932541;28;20062;-70
2022/12/11 06:54:08;;;;;;;22.35;9.02;;;;;;;;;;4939171;28;20073;-70
2022/12/11 06:56:34;;;;;;;24.92;9.57;;;;;;;;;;4948388;28;20058;-70
2022/12/11 06:59:03;;;;;;;23.13;8.77;;;;;;;;;;4948580;28;20050;-70
2022/12/11 07:01:30;;;;;;;23.52;8.35;;;;;;;;;;4923926;28;20062;-71
2022/12/11 07:03:58;;;;;;;23.77;9.65;;;;;;;;;;4924966;28;20054;-70
2022/12/11 07:06:28;;;;;;;24.50;8.93;;;;;;;;;;4960001;28;20113;-70
2022/12/11 07:08:55;;;;;;;27.73;9.30;;;;;;;;;;4959676;28;20050;-70
2022/12/11 07:11:22;;;;;;;22.73;8.75;;;;;;;;;;4956296;28;20050;-70
2022/12/11 07:13:49;;;;;;;24.45;8.75;;;;;;;;;;4940896;28;20113;-70
2022/12/11 07:16:17;;;;;;;22.38;9.10;;;;;;;;;;4941629;28;20156;-70
2022/12/11 07:18:44;;;;;;;;;;;;;;;;;;4949801;28;20069;-70
2022/12/11 07:21:16;;;;;;;21.23;7.75;;;;;;;;;;4989870;28;19925;-70
2022/12/11 07:23:45;;;;;;;26.13;9.07;;;;;;;;;;4940583;28;20050;-70
2022/12/11 07:26:13;;;;;;;21.25;8.30;;;;;;;;;;4967973;28;20054;-70
2022/12/11 07:28:40;;;;;;;23.27;9.30;;;;;;;;;;4958269;28;20073;-70
2022/12/11 07:31:07;;;;;;;25.70;9.43;;;;;;;;;;4954192;28;20057;-70
2022/12/11 07:33:36;;;;;;;24.23;9.25;;;;;;;;;;4929455;28;20050;-70
2022/12/11 07:36:06;;;;;;;23.92;9.05;;;;;;;;;;4951160;28;20113;-70
2022/12/11 07:38:33;;;;;;;20.83;8.90;;;;;;;;;;4981547;28;20104;-70
2022/12/11 07:41:00;;;;;;;24.10;9.13;;;;;;;;;;4940972;28;20052;-70
2022/12/11 07:43:27;;;;;;;20.67;8.25;;;;;;;;;;4925115;28;20057;-70
2022/12/11 07:45:54;;;;;;;24.00;8.52;;;;;;;;;;4951367;28;20074;-70
2022/12/11 07:48:22;;;;;;;23.17;9.20;;;;;;;;;;4945060;28;20054;-70
2022/12/11 07:50:51;;;;;;;22.05;8.00;;;;;;;;;;4982689;28;20050;-70
2022/12/11 07:53:18;;;;;;;21.50;8.25;;;;;;;;;;4947105;28;20049;-70
2022/12/11 07:55:45;;;;;;;23.98;8.57;;;;;;;;;;4948135;28;20062;-70
2022/12/11 07:58:12;;;;;;;21.88;8.60;;;;;;;;;;4934907;28;20058;-70
2022/12/11 08:00:39;;;;;;;20.80;7.38;;;;;;;;;;4984630;28;20054;-70
2022/12/11 08:03:06;;;;;;;22.33;8.77;;;;;;;;;;4919979;28;20062;-72
2022/12/11 08:05:32;;;;;;;22.75;7.97;;;;;;;;;;4896684;28;20223;-70
2022/12/11 08:08:02;;;;;;;20.35;7.97;;;;;;;;;;4937660;28;20141;-71
2022/12/11 08:10:29;;;;;;;21.95;8.25;;;;;;;;;;4956293;28;20047;-71
2022/12/11 08:12:56;;;;;;;19.13;7.80;;;;;;;;;;4937734;28;20058;-71
2022/12/11 08:15:29;;;;;;;20.60;7.65;;;;;;;;;;4915323;28;20058;-71
2022/12/11 08:17:55;;;;;;;21.90;8.27;;;;;;;;;;4951307;28;20065;-71
2022/12/11 08:20:30;;;;;;;19.83;8.02;;;;;;;;;;4967315;28;20055;-71
2022/12/11 08:23:07;;;;;;;20.50;7.63;;;;;;;;;;4942660;28;20132;-70
2022/12/11 08:25:36;;;;;;;22.02;7.55;;;;;;;;;;4952021;28;20222;-70
2022/12/11 08:28:03;;;;;;;19.23;7.65;;;;;;;;;;4969579;28;20093;-71
2022/12/11 08:30:32;;;;;;;22.20;8.15;;;;;;;;;;4956444;28;20050;-71
2022/12/11 08:32:59;;;;;;;25.23;8.32;;;;;;;;;;4949842;28;20061;-70
2022/12/11 08:35:33;;;;;;;18.85;7.55;;;;;;;;;;4930287;28;20050;-71
2022/12/11 08:38:00;;;;;;;20.00;7.68;;;;;;;;;;4938812;28;20120;-71
2022/12/11 08:43:12;;;;;;;18.67;6.75;;;;;;;;;;4946031;28;20076;-70
2022/12/11 08:45:43;;;;;;;19.83;7.38;;;;;;;;;;4939452;28;20050;-70
2022/12/11 08:48:10;;;;;;;22.33;7.90;;;;;;;;;;4961586;28;20063;-71
2022/12/11 08:50:37;;;;;;;16.83;7.25;;;;;;;;;;4948029;28;20061;-70
2022/12/11 08:53:04;;;;;;;18.65;7.40;;;;;;;;;;4969023;28;20069;-70
2022/12/11 08:55:37;;;;;;;22.17;8.50;;;;;;;;;;4956092;28;20057;-70
2022/12/11 08:58:04;;;;;;;17.67;7.47;;;;;;;;;;4942686;28;20054;-71
2022/12/11 09:00:40;;;;;;;17.17;7.53;;;;;;;;;;4943985;28;20062;-71
2022/12/11 09:03:13;;;;;;;17.92;6.82;;;;;;;;;;4997379;28;20069;-70
2022/12/11 09:05:40;;;;;;;17.55;7.05;;;;;;;;;;4924013;28;20135;-70
2022/12/11 09:08:07;;;;;;;21.73;7.95;;;;;;;;;;4977634;28;20126;-71
2022/12/11 09:10:34;;;;;;;18.35;6.50;;;;;;;;;;4916967;28;20150;-71
2022/12/11 09:13:07;;;;;;;18.17;7.03;;;;;;;;;;4953135;28;20137;-70
2022/12/11 09:15:40;;;;;;;19.38;6.75;;;;;;;;;;4873030;28;20149;-71
2022/12/11 09:18:09;;;;;;;16.80;6.32;;;;;;;;;;4915578;28;20059;-70
2022/12/11 09:20:35;;;;;;;19.73;6.68;;;;;;;;;;4960694;28;20086;-70
2022/12/11 09:23:07;;;;;;;16.00;6.32;;;;;;;;;;4973370;28;20065;-70
2022/12/11 09:25:34;;;;;;;19.90;6.82;;;;;;;;;;4942568;28;20069;-71
2022/12/11 09:28:05;;;;;;;19.20;7.55;;;;;;;;;;4972362;28;20113;-70
2022/12/11 09:30:34;;;;;;;17.63;6.97;;;;;;;;;;4965541;28;20050;-71
2022/12/11 09:33:00;;;;;;;;;;;;;;;;;;4963850;28;20050;-70
2022/12/11 09:35:28;;;;;;;15.60;6.10;;;;;;;;;;4962372;28;19973;-70
2022/12/11 09:38:03;;;;;;;17.50;7.18;;;;;;;;;;4921766;28;20046;-71
2022/12/11 09:40:31;;;;;;;18.25;6.90;;;;;;;;;;4942508;28;20055;-70
2022/12/11 09:43:05;;;;;;;20.52;7.90;;;;;;;;;;4907841;28;20054;-71
2022/12/11 09:45:35;;;;;;;16.58;7.13;;;;;;;;;;4882593;28;20138;-70
2022/12/11 09:48:02;;;;;;;20.38;7.47;;;;;;;;;;4873805;29;20087;-71
2022/12/11 09:50:31;;;;;;;15.35;6.53;;;;;;;;;;4887661;28;20069;-70
2022/12/11 09:53:05;;;;;;;16.40;7.18;;;;;;;;;;4963668;28;20050;-70
2022/12/11 09:55:35;;;;;;;15.73;6.65;;;;;;;;;;4913559;28;20057;-71
2022/12/11 09:58:05;;;;;;;16.38;6.22;;;;;;;;;;4979547;28;20155;-71
2022/12/11 10:00:38;;;;;;;17.60;7.03;;;;;;;;;;4966974;28;20082;-69
2022/12/11 10:03:37;;;;;;;19.10;6.28;;;;;;;;;;4947612;28;20064;-70
2022/12/11 10:06:12;;;;;;;15.85;6.53;;;;;;;;;;4953841;28;20124;-71
2022/12/11 10:08:45;;;;;;;17.60;6.75;;;;;;;;;;4929019;28;20101;-71
2022/12/11 10:11:37;;;;;;;16.98;6.75;;;;;;;;;;4958221;28;20057;-71
2022/12/11 10:14:13;;;;;;;19.10;6.13;;;;;;;;;;4903047;28;20047;-69
2022/12/11 10:16:44;;;;;;;17.50;6.20;;;;;;;;;;4917574;28;20087;-69
2022/12/11 10:19:14;;;;;;;17.50;6.70;;;;;;;;;;4944123;28;20073;-70
2022/12/11 10:21:46;;;;;;;17.73;6.63;;;;;;;;;;4947039;28;20146;-71
2022/12/11 10:24:18;;;;;;;14.80;6.00;;;;;;;;;;4950081;28;20047;-70
2022/12/11 10:26:48;;;;;;;17.05;7.35;;;;;;;;;;4911543;28;20046;-71
2022/12/11 10:29:17;;;;;;;15.75;5.90;;;;;;;;;;4970496;28;20074;-72
2022/12/11 10:31:51;;;;;;;16.08;6.55;;;;;;;;;;4954919;28;20333;-70
2022/12/11 10:34:22;;;;;;;15.75;6.28;;;;;;;;;;4959356;28;20118;-70
2022/12/11 10:36:56;;;;;;;18.33;6.07;;;;;;;;;;4939995;28;20058;-70
2022/12/11 10:39:28;;;;;;;16.80;6.82;;;;;;;;;;4929805;28;20043;-70
2022/12/11 10:42:05;;;;;;;15.05;5.97;;;;;;;;;;4937762;28;20051;-71
2022/12/11 10:44:32;;;;;;;20.15;6.82;;;;;;;;;;4903230;28;20062;-70
2022/12/11 10:47:02;;;;;;;15.55;6.60;;;;;;;;;;4886555;28;20055;-70
2022/12/11 10:49:33;;;;;;;14.77;6.13;;;;;;;;;;4955238;28;20269;-69
2022/12/11 10:52:18;;;;;;;16.60;6.40;;;;;;;;;;4957519;28;20050;-70
2022/12/11 10:54:54;;;;;;;19.17;7.40;;;;;;;;;;4938114;28;20077;-70
2022/12/11 10:57:26;;;;;;;15.52;5.50;;;;;;;;;;4893265;28;20063;-72
2022/12/11 10:59:59;;;;;;;17.83;6.40;;;;;;;;;;4886550;29;20134;-72
2022/12/11 11:02:27;;;;;;;13.90;5.82;;;;;;;;;;4904219;28;20054;-72
2022/12/11 11:07:28;;;;;;;14.05;6.55;;;;;;;;;;4786360;29;20057;-71
2022/12/11 11:10:26;;;;;;;16.55;6.30;;;;;;;;;;4824434;29;20075;-70
2022/12/11 11:13:00;;;;;;;18.55;6.30;;;;;;;;;;4899462;28;20055;-71
2022/12/11 11:15:28;;;;;;;17.20;6.07;;;;;;;;;;4885886;28;20481;-69
2022/12/11 11:18:00;;;;;;;16.90;6.10;;;;;;;;;;4929010;28;20077;-71
2022/12/11 11:20:30;;;;;;;19.33;6.57;;;;;;;;;;4925224;28;20141;-71
2022/12/11 11:23:01;;;;;;;14.30;6.05;;;;;;;;;;4927247;28;20055;-70
2022/12/11 11:25:29;;;;;;;14.50;6.65;;;;;;;;;;4872682;28;20056;-71
2022/12/11 11:27:57;;;;;;;19.80;6.80;;;;;;;;;;4895325;28;20075;-71
2022/12/11 11:30:25;;;;;;;16.50;6.47;;;;;;;;;;4870296;28;20056;-69
2022/12/11 11:32:54;;;;;;;17.13;6.22;;;;;;;;;;4935047;28;20057;-70
2022/12/11 11:35:24;;;;;;;18.98;6.53;;;;;;;;;;4932116;28;20070;-70
2022/12/11 11:37:56;;;;;;;14.85;6.10;;;;;;;;;;4906727;28;20054;-70
2022/12/11 11:40:28;;;;;;;17.80;6.85;;;;;;;;;;4896713;28;20056;-70
2022/12/11 11:43:02;;;;;;;18.55;6.75;;;;;;;;;;4888141;28;20051;-70
2022/12/11 11:45:32;;;;;;;16.13;5.97;;;;;;;;;;4827394;28;20137;-69
2022/12/11 11:48:00;;;;;;;17.52;6.22;;;;;;;;;;4930445;28;20059;-69
2022/12/11 11:50:31;;;;;;;17.48;6.57;;;;;;;;;;4982300;28;20053;-69
2022/12/11 11:53:02;;;;;;;19.10;7.10;;;;;;;;;;4951038;28;20129;-70
2022/12/11 11:55:48;;;;;;;;;;;;;;;;;;;;;
2022/12/11 11:58:18;;;;;;;16.23;6.65;;;;;;;;;;4922533;28;20062;-69
2022/12/11 12:00:46;;;;;;;16.02;6.45;;;;;;;;;;4951325;28;20062;-69
2022/12/11 12:06:04;;;;;;;15.63;6.20;;;;;;;;;;4917877;28;20126;-70
2022/12/11 12:08:39;;;;;;;16.48;6.22;;;;;;;;;;4924885;28;20082;-70
2022/12/11 12:11:15;;;;;;;17.77;6.93;;;;;;;;;;4946074;28;20056;-70
2022/12/11 12:13:52;;;;;;;19.23;6.22;;;;;;;;;;4937335;28;20055;-72
2022/12/11 12:16:29;;;;;;;17.35;6.78;;;;;;;;;;4951328;28;20077;-69
2022/12/11 12:19:01;;;;;;;20.88;6.88;;;;;;;;;;4938244;28;20069;-69
2022/12/11 12:21:34;;;;;;;19.13;7.18;;;;;;;;;;4948425;28;20062;-70
2022/12/11 12:24:13;;;;;;;20.30;6.72;;;;;;;;;;4961273;28;20058;-72
2022/12/11 12:26:45;;;;;;;17.15;6.13;;;;;;;;;;4963979;28;20112;-69
2022/12/11 12:29:19;;;;;;;16.58;5.88;;;;;;;;;;4945875;28;20050;-68
2022/12/11 12:31:53;;;;;;;15.80;6.30;;;;;;;;;;4964802;28;20058;-71
2022/12/11 12:34:27;;;;;;;17.73;7.20;;;;;;;;;;4955771;28;20093;-71
2022/12/11 12:36:59;;;;;;;14.40;5.88;;;;;;;;;;4886797;28;20055;-70
2022/12/11 12:39:37;;;;;;;17.35;6.10;;;;;;;;;;4917225;28;20050;-70
2022/12/11 12:42:09;;;;;;;17.65;6.82;;;;;;;;;;4950204;28;20050;-71
2022/12/11 12:44:45;;;;;;;19.33;6.78;;;;;;;;;;4931503;28;20058;-70
2022/12/11 12:47:19;;;;;;;19.52;7.35;;;;;;;;;;4879476;28;20379;-71
2022/12/11 12:49:46;;;;;;;18.75;6.10;;;;;;;;;;4852071;29;20227;-70
2022/12/11 12:52:18;;;;;;;17.90;7.00;;;;;;;;;;4876997;29;20063;-70
2022/12/11 12:57:38;;;;;;;15.35;5.80;;;;;;;;;;4866851;28;20094;-70
2022/12/11 13:00:09;;;;;;;16.65;6.45;;;;;;;;;;4878340;28;20051;-70
2022/12/11 13:02:47;;;;;;;20.15;7.20;;;;;;;;;;4943601;28;20055;-70
2022/12/11 13:05:22;;;;;;;18.50;6.95;;;;;;;;;;4901569;28;20063;-72
2022/12/11 13:07:53;;;;;;;22.92;6.45;;;;;;;;;;4876963;28;20102;-70
2022/12/11 13:10:24;;;;;;;16.33;6.22;;;;;;;;;;4910008;28;20051;-69
2022/12/11 13:12:53;;;;;;;17.35;6.20;;;;;;;;;;4916782;29;20055;-70
2022/12/11 13:15:41;;;;;;;15.05;5.97;;;;;;;;;;4857303;29;20084;-69
2022/12/11 13:18:23;;;;;;;17.13;7.25;;;;;;;;;;4866238;28;20092;-70
2022/12/11 13:20:53;;;;;;;17.95;6.20;;;;;;;;;;4865647;29;20052;-70
2022/12/11 13:23:27;;;;;;;17.63;6.35;;;;;;;;;;4874545;29;20070;-70
2022/12/11 13:25:57;;;;;;;18.75;6.65;;;;;;;;;;4870866;28;20151;-70
2022/12/11 13:28:48;;;;;;;18.70;6.60;;;;;;;;;;4893289;29;20075;-70
2022/12/11 13:31:35;;;;;;;17.80;5.78;;;;;;;;;;4923027;28;20054;-70
2022/12/11 13:34:14;;;;;;;15.60;6.45;;;;;;;;;;4907971;28;20051;-70
2022/12/11 13:36:41;;;;;;;16.75;6.50;;;;;;;;;;4912167;28;20091;-70
2022/12/11 13:39:15;;;;;;;17.52;7.05;;;;;;;;;;4952500;28;20150;-71
2022/12/11 13:41:46;;;;;;;16.80;5.85;;;;;;;;;;4920717;28;21003;-70
2022/12/11 13:44:22;;;;;;;17.65;6.47;;;;;;;;;;4885429;28;20058;-70
2022/12/11 13:46:49;;;;;;;15.32;6.25;;;;;;;;;;4903291;28;20146;-73
2022/12/11 13:49:28;;;;;;;19.65;7.40;;;;;;;;;;4886175;29;20134;-73
2022/12/11 14:10:33;;;;;;;13.57;4.53;;;;;;;;;;6208195;22;20351;-71
2022/12/11 14:13:03;;;;;;;17.30;6.70;;;;;;;;;;6030044;23;20022;-71
2022/12/11 14:15:32;;;;;;;15.05;6.93;;;;;;;;;;6016281;23;20022;-72
2022/12/11 14:20:46;;;;;;;15.18;6.30;;;;;;;;;;4911799;27;5434120;-72
2022/12/11 14:23:24;;;;;;;18.42;6.70;;;;;;;;;;4988553;28;20115;-72
2022/12/11 14:47:01;;;;;;;15.23;6.82;;;;;;;;;;5020301;28;20376;-70
2022/12/11 14:49:40;;;;;;;16.98;6.05;;;;;;;;;;4889154;28;20065;-71
2022/12/11 14:52:17;;;;;;;12.70;5.70;;;;;;;;;;5078218;23;20154;-72
2022/12/11 14:54:57;;;;;;;15.30;6.60;;;;;;;;;;4906381;28;20130;-73
2022/12/11 15:02:59;;;;;;;16.25;6.13;;;;;;;;;;5024617;28;20458;-70
2022/12/11 15:05:26;;;;;;;19.63;5.75;;;;;;;;;;4946128;28;20097;-71
2022/12/11 15:07:59;;;;;;;14.18;6.55;;;;;;;;;;4902090;28;20052;-70
2022/12/11 15:10:31;;;;;;;14.80;5.95;;;;;;;;;;4948730;28;20050;-69
2022/12/11 15:13:23;;;;;;;19.33;7.15;;;;;;;;;;4952814;28;20120;-70
2022/12/11 15:15:51;;;;;;;16.02;6.05;;;;;;;;;;4961952;28;20050;-70
2022/12/11 15:18:21;;;;;;;17.17;6.43;;;;;;;;;;4937381;28;20148;-69
2022/12/11 15:20:50;;;;;;;20.15;7.50;;;;;;;;;;4976309;28;20053;-70
2022/12/11 15:23:18;;;;;;;18.58;6.60;;;;;;;;;;4976108;28;20057;-71
2022/12/11 15:25:51;;;;;;;15.43;6.00;;;;;;;;;;4968768;28;20276;-70
2022/12/11 15:28:29;;;;;;;17.85;6.80;;;;;;;;;;4965053;28;20061;-70
2022/12/11 15:30:59;;;;;;;19.58;6.07;;;;;;;;;;4964396;28;20061;-70
2022/12/11 15:33:28;;;;;;;16.73;6.43;;;;;;;;;;4975492;28;20061;-69
2022/12/11 15:36:06;;;;;;;16.67;6.57;;;;;;;;;;4938141;28;20054;-71
2022/12/11 15:38:42;;;;;;;13.73;6.17;;;;;;;;;;4900089;28;20064;-70
2022/12/11 15:41:32;;;;;;;18.98;6.72;;;;;;;;;;4931583;28;20558;-70
2022/12/11 15:44:21;;;;;;;17.30;6.50;;;;;;;;;;4963361;28;20268;-70
2022/12/11 15:47:00;;;;;;;18.35;6.68;;;;;;;;;;4987321;28;20058;-69
2022/12/11 15:49:31;;;;;;;16.05;6.53;;;;;;;;;;4921480;28;20061;-71
2022/12/11 15:52:00;;;;;;;17.33;6.47;;;;;;;;;;4943115;28;20054;-70
2022/12/11 15:54:36;;;;;;;20.00;7.18;;;;;;;;;;4931877;28;20141;-69
2022/12/11 16:02:19;;;;;;;16.50;6.53;;;;;;;;;;5042535;27;20491;-72
2022/12/11 16:04:48;;;;;;;19.52;6.75;;;;;;;;;;4966794;28;20046;-73